sensor_id;sensor_type;location;lat;lon;timestamp;pressure;altitude;pressure_sealevel;temperature;humidity
64967;BME280;51710;38.732;-121.358;2023-10-31T00:00:18;101433.75;;;22.48;30.99
64967;BME280;51710;38.732;-121.358;2023-10-31T00:02:44;101433.78;;;22.41;31.09
64967;BME280;51710;38.732;-121.358;2023-10-31T00:05:11;101439.44;;;22.40;31.14
64967;BME280;51710;38.732;-121.358;2023-10-31T00:07:37;101439.88;;;22.37;31.37
64967;BME280;51710;38.732;-121.358;2023-10-31T00:10:03;101440.28;;;22.33;31.44
64967;BME280;51710;38.732;-121.358;2023-10-31T00:12:30;101426.13;;;22.31;31.66
64967;BME280;51710;38.732;-121.358;2023-10-31T00:14:56;101428.63;;;22.26;31.80
64967;BME280;51710;38.732;-121.358;2023-10-31T00:17:22;101428.22;;;22.23;31.81
64967;BME280;51710;38.732;-121.358;2023-10-31T00:19:48;101422.38;;;22.19;31.52
64967;BME280;51710;38.732;-121.358;2023-10-31T00:22:15;101431.63;;;22.12;31.66
64967;BME280;51710;38.732;-121.358;2023-10-31T00:24:41;101422.06;;;22.03;31.66
64967;BME280;51710;38.732;-121.358;2023-10-31T00:27:08;101425.84;;;21.95;31.67
64967;BME280;51710;38.732;-121.358;2023-10-31T00:29:34;101425.47;;;21.85;32.36
64967;BME280;51710;38.732;-121.358;2023-10-31T00:32:00;101420.88;;;21.73;32.58
64967;BME280;51710;38.732;-121.358;2023-10-31T00:34:27;101424.03;;;21.57;32.97
64967;BME280;51710;38.732;-121.358;2023-10-31T00:36:53;101426.56;;;21.45;32.92
64967;BME280;51710;38.732;-121.358;2023-10-31T00:39:20;101423.47;;;21.35;33.24
64967;BME280;51710;38.732;-121.358;2023-10-31T00:41:47;101415.94;;;21.24;33.56
64967;BME280;51710;38.732;-121.358;2023-10-31T00:44:13;101428.69;;;21.10;33.40
64967;BME280;51710;38.732;-121.358;2023-10-31T00:46:40;101434.03;;;20.97;33.62
64967;BME280;51710;38.732;-121.358;2023-10-31T00:49:06;101421.56;;;20.83;33.30
64967;BME280;51710;38.732;-121.358;2023-10-31T00:51:32;101432.56;;;20.69;33.69
64967;BME280;51710;38.732;-121.358;2023-10-31T00:53:59;101427.13;;;20.56;34.51
64967;BME280;51710;38.732;-121.358;2023-10-31T00:56:25;101430.81;;;20.42;33.94
64967;BME280;51710;38.732;-121.358;2023-10-31T00:58:51;101438.28;;;20.27;34.06
64967;BME280;51710;38.732;-121.358;2023-10-31T01:01:17;101435.50;;;20.13;33.92
64967;BME280;51710;38.732;-121.358;2023-10-31T01:03:44;101428.97;;;20.01;34.14
64967;BME280;51710;38.732;-121.358;2023-10-31T01:06:10;101435.38;;;19.87;33.95
64967;BME280;51710;38.732;-121.358;2023-10-31T01:08:37;101432.19;;;19.77;34.28
64967;BME280;51710;38.732;-121.358;2023-10-31T01:11:03;101440.25;;;19.71;35.25
64967;BME280;51710;38.732;-121.358;2023-10-31T01:13:29;101437.31;;;19.66;35.84
64967;BME280;51710;38.732;-121.358;2023-10-31T01:15:56;101436.25;;;19.60;35.62
64967;BME280;51710;38.732;-121.358;2023-10-31T01:18:22;101433.72;;;19.52;36.32
64967;BME280;51710;38.732;-121.358;2023-10-31T01:20:48;101430.34;;;19.44;36.64
64967;BME280;51710;38.732;-121.358;2023-10-31T01:23:14;101439.41;;;19.36;36.35
64967;BME280;51710;38.732;-121.358;2023-10-31T01:25:41;101442.03;;;19.30;36.81
64967;BME280;51710;38.732;-121.358;2023-10-31T01:28:07;101444.66;;;19.23;36.84
64967;BME280;51710;38.732;-121.358;2023-10-31T01:30:33;101444.19;;;19.13;36.56
64967;BME280;51710;38.732;-121.358;2023-10-31T01:33:00;101440.97;;;19.03;37.10
64967;BME280;51710;38.732;-121.358;2023-10-31T01:35:26;101444.59;;;18.89;37.13
64967;BME280;51710;38.732;-121.358;2023-10-31T01:37:52;101449.22;;;18.74;37.37
64967;BME280;51710;38.732;-121.358;2023-10-31T01:40:18;101448.69;;;18.64;37.81
64967;BME280;51710;38.732;-121.358;2023-10-31T01:42:45;101448.56;;;18.51;38.10
64967;BME280;51710;38.732;-121.358;2023-10-31T01:45:11;101454.78;;;18.37;37.81
64967;BME280;51710;38.732;-121.358;2023-10-31T01:47:37;101451.47;;;18.20;38.14
64967;BME280;51710;38.732;-121.358;2023-10-31T01:50:06;101460.44;;;18.06;38.10
64967;BME280;51710;38.732;-121.358;2023-10-31T01:52:33;101464.78;;;17.92;38.24
64967;BME280;51710;38.732;-121.358;2023-10-31T01:55:02;101458.19;;;17.80;38.68
64967;BME280;51710;38.732;-121.358;2023-10-31T01:57:30;101457.38;;;17.65;38.88
64967;BME280;51710;38.732;-121.358;2023-10-31T01:59:57;101454.66;;;17.51;39.07
64967;BME280;51710;38.732;-121.358;2023-10-31T02:02:23;101456.94;;;17.39;39.21
64967;BME280;51710;38.732;-121.358;2023-10-31T02:04:51;101457.00;;;17.31;39.01
64967;BME280;51710;38.732;-121.358;2023-10-31T02:07:18;101457.09;;;17.23;39.06
64967;BME280;51710;38.732;-121.358;2023-10-31T02:09:44;101467.09;;;17.15;39.93
64967;BME280;51710;38.732;-121.358;2023-10-31T02:12:10;101457.13;;;17.01;40.06
64967;BME280;51710;38.732;-121.358;2023-10-31T02:14:36;101467.31;;;16.91;40.56
64967;BME280;51710;38.732;-121.358;2023-10-31T02:17:03;101464.84;;;16.81;40.40
64967;BME280;51710;38.732;-121.358;2023-10-31T02:19:29;101470.66;;;16.70;40.60
64967;BME280;51710;38.732;-121.358;2023-10-31T02:21:55;101469.38;;;16.58;40.60
64967;BME280;51710;38.732;-121.358;2023-10-31T02:24:24;101464.41;;;16.47;41.52
64967;BME280;51710;38.732;-121.358;2023-10-31T02:26:50;101471.97;;;16.35;41.92
64967;BME280;51710;38.732;-121.358;2023-10-31T02:29:17;101469.69;;;16.24;42.50
64967;BME280;51710;38.732;-121.358;2023-10-31T02:31:43;101469.72;;;16.16;43.15
64967;BME280;51710;38.732;-121.358;2023-10-31T02:34:09;101465.25;;;16.09;43.75
64967;BME280;51710;38.732;-121.358;2023-10-31T02:36:35;101465.25;;;16.01;43.54
64967;BME280;51710;38.732;-121.358;2023-10-31T02:39:02;101473.03;;;15.88;43.76
64967;BME280;51710;38.732;-121.358;2023-10-31T02:41:28;101469.88;;;15.76;44.28
64967;BME280;51710;38.732;-121.358;2023-10-31T02:43:54;101470.09;;;15.66;44.49
64967;BME280;51710;38.732;-121.358;2023-10-31T02:46:21;101469.13;;;15.51;44.62
64967;BME280;51710;38.732;-121.358;2023-10-31T02:48:47;101467.63;;;15.41;44.80
64967;BME280;51710;38.732;-121.358;2023-10-31T02:51:13;101481.19;;;15.31;44.91
64967;BME280;51710;38.732;-121.358;2023-10-31T02:53:39;101469.78;;;15.13;45.44
64967;BME280;51710;38.732;-121.358;2023-10-31T02:56:06;101473.97;;;15.00;46.15
64967;BME280;51710;38.732;-121.358;2023-10-31T02:58:32;101477.00;;;14.97;46.64
64967;BME280;51710;38.732;-121.358;2023-10-31T03:00:58;101477.34;;;14.94;46.48
64967;BME280;51710;38.732;-121.358;2023-10-31T03:03:25;101471.47;;;14.90;46.88
64967;BME280;51710;38.732;-121.358;2023-10-31T03:05:51;101477.13;;;14.87;47.24
64967;BME280;51710;38.732;-121.358;2023-10-31T03:08:17;101483.88;;;14.83;47.35
64967;BME280;51710;38.732;-121.358;2023-10-31T03:10:48;101483.84;;;14.75;47.55
64967;BME280;51710;38.732;-121.358;2023-10-31T03:13:18;101484.84;;;14.66;48.05
64967;BME280;51710;38.732;-121.358;2023-10-31T03:15:48;101476.78;;;14.58;47.82
64967;BME280;51710;38.732;-121.358;2023-10-31T03:18:14;101477.44;;;14.52;48.07
64967;BME280;51710;38.732;-121.358;2023-10-31T03:20:44;101485.13;;;14.47;48.77
64967;BME280;51710;38.732;-121.358;2023-10-31T03:23:12;101488.47;;;14.41;48.76
64967;BME280;51710;38.732;-121.358;2023-10-31T03:25:38;101485.91;;;14.31;49.05
64967;BME280;51710;38.732;-121.358;2023-10-31T03:28:18;101486.53;;;14.25;49.57
64967;BME280;51710;38.732;-121.358;2023-10-31T03:30:46;101493.38;;;14.20;49.67
64967;BME280;51710;38.732;-121.358;2023-10-31T03:33:13;101485.84;;;14.15;49.79
64967;BME280;51710;38.732;-121.358;2023-10-31T03:35:39;101492.66;;;14.10;50.14
64967;BME280;51710;38.732;-121.358;2023-10-31T03:38:05;101497.69;;;14.05;50.33
64967;BME280;51710;38.732;-121.358;2023-10-31T03:40:31;101484.22;;;13.97;50.52
64967;BME280;51710;38.732;-121.358;2023-10-31T03:42:57;101490.94;;;13.93;50.68
64967;BME280;51710;38.732;-121.358;2023-10-31T03:45:24;101493.91;;;13.90;51.14
64967;BME280;51710;38.732;-121.358;2023-10-31T03:47:50;101491.53;;;13.87;51.07
64967;BME280;51710;38.732;-121.358;2023-10-31T03:50:16;101493.88;;;13.82;50.99
64967;BME280;51710;38.732;-121.358;2023-10-31T03:52:42;101497.84;;;13.78;51.42
64967;BME280;51710;38.732;-121.358;2023-10-31T03:55:09;101493.84;;;13.74;51.20
64967;BME280;51710;38.732;-121.358;2023-10-31T03:57:35;101494.47;;;13.68;51.48
64967;BME280;51710;38.732;-121.358;2023-10-31T04:00:01;101505.47;;;13.65;51.38
64967;BME280;51710;38.732;-121.358;2023-10-31T04:02:30;101504.28;;;13.59;51.29
64967;BME280;51710;38.732;-121.358;2023-10-31T04:04:56;101503.22;;;13.52;51.77
64967;BME280;51710;38.732;-121.358;2023-10-31T04:07:22;101498.19;;;13.49;51.71
64967;BME280;51710;38.732;-121.358;2023-10-31T04:09:49;101508.03;;;13.48;52.21
64967;BME280;51710;38.732;-121.358;2023-10-31T04:12:16;101508.38;;;13.45;52.60
64967;BME280;51710;38.732;-121.358;2023-10-31T04:14:43;101508.66;;;13.42;52.45
64967;BME280;51710;38.732;-121.358;2023-10-31T04:17:09;101508.97;;;13.39;52.56
64967;BME280;51710;38.732;-121.358;2023-10-31T04:19:36;101512.66;;;13.38;52.76
64967;BME280;51710;38.732;-121.358;2023-10-31T04:22:03;101507.91;;;13.32;52.78
64967;BME280;51710;38.732;-121.358;2023-10-31T04:24:29;101507.88;;;13.24;52.86
64967;BME280;51710;38.732;-121.358;2023-10-31T04:26:55;101510.88;;;13.21;52.76
64967;BME280;51710;38.732;-121.358;2023-10-31T04:29:22;101515.69;;;13.18;52.66
64967;BME280;51710;38.732;-121.358;2023-10-31T04:31:49;101518.47;;;13.16;52.89
64967;BME280;51710;38.732;-121.358;2023-10-31T04:34:15;101520.34;;;13.16;52.88
64967;BME280;51710;38.732;-121.358;2023-10-31T04:36:41;101522.47;;;13.12;52.96
64967;BME280;51710;38.732;-121.358;2023-10-31T04:39:07;101518.97;;;13.12;53.16
64967;BME280;51710;38.732;-121.358;2023-10-31T04:41:33;101530.13;;;13.07;53.09
64967;BME280;51710;38.732;-121.358;2023-10-31T04:44:00;101526.75;;;13.05;53.21
64967;BME280;51710;38.732;-121.358;2023-10-31T04:46:26;101530.31;;;12.96;53.00
64967;BME280;51710;38.732;-121.358;2023-10-31T04:48:52;101519.09;;;12.93;53.29
64967;BME280;51710;38.732;-121.358;2023-10-31T04:51:19;101519.25;;;12.91;53.10
64967;BME280;51710;38.732;-121.358;2023-10-31T04:53:45;101523.03;;;12.89;53.34
64967;BME280;51710;38.732;-121.358;2023-10-31T04:56:13;101522.34;;;12.87;53.64
64967;BME280;51710;38.732;-121.358;2023-10-31T04:58:46;101522.13;;;12.80;53.75
64967;BME280;51710;38.732;-121.358;2023-10-31T05:01:13;101533.13;;;12.77;54.00
64967;BME280;51710;38.732;-121.358;2023-10-31T05:03:39;101526.94;;;12.77;54.14
64967;BME280;51710;38.732;-121.358;2023-10-31T05:06:06;101535.03;;;12.67;54.28
64967;BME280;51710;38.732;-121.358;2023-10-31T05:08:32;101537.59;;;12.59;54.08
64967;BME280;51710;38.732;-121.358;2023-10-31T05:10:58;101530.75;;;12.57;54.61
64967;BME280;51710;38.732;-121.358;2023-10-31T05:13:25;101543.94;;;12.58;54.64
64967;BME280;51710;38.732;-121.358;2023-10-31T05:15:51;101540.00;;;12.62;54.17
64967;BME280;51710;38.732;-121.358;2023-10-31T05:18:17;101536.41;;;12.71;54.38
64967;BME280;51710;38.732;-121.358;2023-10-31T05:20:44;101544.34;;;12.81;54.30
64967;BME280;51710;38.732;-121.358;2023-10-31T05:23:10;101540.25;;;12.86;54.72
64967;BME280;51710;38.732;-121.358;2023-10-31T05:25:36;101542.38;;;12.83;54.12
64967;BME280;51710;38.732;-121.358;2023-10-31T05:28:03;101547.19;;;12.79;54.28
64967;BME280;51710;38.732;-121.358;2023-10-31T05:30:30;101549.00;;;12.79;54.45
64967;BME280;51710;38.732;-121.358;2023-10-31T05:32:57;101546.03;;;12.82;54.82
64967;BME280;51710;38.732;-121.358;2023-10-31T05:35:23;101552.06;;;12.84;54.41
64967;BME280;51710;38.732;-121.358;2023-10-31T05:37:50;101560.63;;;12.87;54.64
64967;BME280;51710;38.732;-121.358;2023-10-31T05:40:17;101555.97;;;12.89;54.29
64967;BME280;51710;38.732;-121.358;2023-10-31T05:42:43;101562.88;;;12.92;54.46
64967;BME280;51710;38.732;-121.358;2023-10-31T05:45:10;101554.00;;;12.91;54.41
64967;BME280;51710;38.732;-121.358;2023-10-31T05:47:36;101564.75;;;12.82;54.13
64967;BME280;51710;38.732;-121.358;2023-10-31T05:50:02;101557.78;;;12.71;54.20
64967;BME280;51710;38.732;-121.358;2023-10-31T05:52:29;101556.69;;;12.64;54.79
64967;BME280;51710;38.732;-121.358;2023-10-31T05:54:55;101556.31;;;12.59;54.65
64967;BME280;51710;38.732;-121.358;2023-10-31T05:57:22;101554.25;;;12.53;54.47
64967;BME280;51710;38.732;-121.358;2023-10-31T05:59:48;101556.66;;;12.46;54.51
64967;BME280;51710;38.732;-121.358;2023-10-31T06:02:14;101554.97;;;12.45;54.70
64967;BME280;51710;38.732;-121.358;2023-10-31T06:04:41;101553.56;;;12.51;55.46
64967;BME280;51710;38.732;-121.358;2023-10-31T06:07:07;101554.25;;;12.53;55.32
64967;BME280;51710;38.732;-121.358;2023-10-31T06:09:33;101555.22;;;12.52;55.06
64967;BME280;51710;38.732;-121.358;2023-10-31T06:12:00;101557.50;;;12.47;55.43
64967;BME280;51710;38.732;-121.358;2023-10-31T06:14:26;101556.72;;;12.37;55.42
64967;BME280;51710;38.732;-121.358;2023-10-31T06:16:53;101560.66;;;12.33;55.51
64967;BME280;51710;38.732;-121.358;2023-10-31T06:19:20;101561.66;;;12.32;55.81
64967;BME280;51710;38.732;-121.358;2023-10-31T06:21:46;101560.66;;;12.33;55.69
64967;BME280;51710;38.732;-121.358;2023-10-31T06:24:15;101566.00;;;12.33;56.35
64967;BME280;51710;38.732;-121.358;2023-10-31T06:26:42;101561.13;;;12.28;55.93
64967;BME280;51710;38.732;-121.358;2023-10-31T06:29:08;101563.09;;;12.26;56.15
64967;BME280;51710;38.732;-121.358;2023-10-31T06:31:34;101559.56;;;12.26;55.71
64967;BME280;51710;38.732;-121.358;2023-10-31T06:34:00;101561.41;;;12.25;55.83
64967;BME280;51710;38.732;-121.358;2023-10-31T06:36:26;101556.19;;;12.24;55.92
64967;BME280;51710;38.732;-121.358;2023-10-31T06:38:53;101559.03;;;12.22;55.94
64967;BME280;51710;38.732;-121.358;2023-10-31T06:41:19;101558.22;;;12.22;56.12
64967;BME280;51710;38.732;-121.358;2023-10-31T06:43:45;101553.13;;;12.19;56.02
64967;BME280;51710;38.732;-121.358;2023-10-31T06:46:12;101567.78;;;12.15;56.59
64967;BME280;51710;38.732;-121.358;2023-10-31T06:48:40;101560.03;;;12.12;56.66
64967;BME280;51710;38.732;-121.358;2023-10-31T06:51:06;101557.09;;;12.15;56.43
64967;BME280;51710;38.732;-121.358;2023-10-31T06:53:33;101554.84;;;12.20;56.57
64967;BME280;51710;38.732;-121.358;2023-10-31T06:55:59;101560.56;;;12.25;56.27
64967;BME280;51710;38.732;-121.358;2023-10-31T06:58:25;101554.53;;;12.23;56.16
64967;BME280;51710;38.732;-121.358;2023-10-31T07:00:51;101552.88;;;12.22;56.95
64967;BME280;51710;38.732;-121.358;2023-10-31T07:03:17;101552.44;;;12.17;56.57
64967;BME280;51710;38.732;-121.358;2023-10-31T07:05:44;101546.69;;;12.12;56.88
64967;BME280;51710;38.732;-121.358;2023-10-31T07:08:10;101542.38;;;12.11;56.36
64967;BME280;51710;38.732;-121.358;2023-10-31T07:10:36;101550.38;;;12.11;57.06
64967;BME280;51710;38.732;-121.358;2023-10-31T07:13:03;101557.38;;;12.12;56.93
64967;BME280;51710;38.732;-121.358;2023-10-31T07:15:29;101562.28;;;12.16;56.80
64967;BME280;51710;38.732;-121.358;2023-10-31T07:17:56;101556.50;;;12.21;57.28
64967;BME280;51710;38.732;-121.358;2023-10-31T07:20:22;101551.41;;;12.27;56.68
64967;BME280;51710;38.732;-121.358;2023-10-31T07:22:48;101555.09;;;12.26;56.50
64967;BME280;51710;38.732;-121.358;2023-10-31T07:25:14;101561.28;;;12.27;56.74
64967;BME280;51710;38.732;-121.358;2023-10-31T07:27:40;101556.75;;;12.27;57.08
64967;BME280;51710;38.732;-121.358;2023-10-31T07:30:07;101571.34;;;12.33;57.07
64967;BME280;51710;38.732;-121.358;2023-10-31T07:32:33;101562.38;;;12.34;57.43
64967;BME280;51710;38.732;-121.358;2023-10-31T07:34:59;101567.16;;;12.30;57.17
64967;BME280;51710;38.732;-121.358;2023-10-31T07:37:26;101576.78;;;12.14;57.13
64967;BME280;51710;38.732;-121.358;2023-10-31T07:39:52;101579.25;;;11.79;57.99
64967;BME280;51710;38.732;-121.358;2023-10-31T07:42:18;101587.84;;;11.54;58.57
64967;BME280;51710;38.732;-121.358;2023-10-31T07:44:45;101591.25;;;11.37;58.73
64967;BME280;51710;38.732;-121.358;2023-10-31T07:47:11;101589.13;;;11.30;59.34
64967;BME280;51710;38.732;-121.358;2023-10-31T07:49:37;101581.81;;;11.32;60.27
64967;BME280;51710;38.732;-121.358;2023-10-31T07:52:04;101594.00;;;11.35;59.86
64967;BME280;51710;38.732;-121.358;2023-10-31T07:54:30;101586.88;;;11.35;59.95
64967;BME280;51710;38.732;-121.358;2023-10-31T07:56:56;101587.56;;;11.38;60.09
64967;BME280;51710;38.732;-121.358;2023-10-31T07:59:23;101587.28;;;11.41;60.30
64967;BME280;51710;38.732;-121.358;2023-10-31T08:01:49;101594.56;;;11.38;60.43
64967;BME280;51710;38.732;-121.358;2023-10-31T08:04:17;101590.69;;;11.33;60.34
64967;BME280;51710;38.732;-121.358;2023-10-31T08:06:44;101592.34;;;11.24;59.97
64967;BME280;51710;38.732;-121.358;2023-10-31T08:09:10;101593.75;;;11.09;60.46
64967;BME280;51710;38.732;-121.358;2023-10-31T08:11:37;101593.03;;;11.07;60.96
64967;BME280;51710;38.732;-121.358;2023-10-31T08:14:03;101601.59;;;11.11;61.04
64967;BME280;51710;38.732;-121.358;2023-10-31T08:16:29;101598.78;;;11.12;61.10
64967;BME280;51710;38.732;-121.358;2023-10-31T08:18:56;101598.78;;;11.12;60.89
64967;BME280;51710;38.732;-121.358;2023-10-31T08:21:22;101603.16;;;11.13;60.58
64967;BME280;51710;38.732;-121.358;2023-10-31T08:23:48;101610.00;;;11.16;60.74
64967;BME280;51710;38.732;-121.358;2023-10-31T08:26:14;101604.69;;;11.16;61.37
64967;BME280;51710;38.732;-121.358;2023-10-31T08:28:41;101611.56;;;11.18;61.30
64967;BME280;51710;38.732;-121.358;2023-10-31T08:31:07;101610.56;;;11.19;60.78
64967;BME280;51710;38.732;-121.358;2023-10-31T08:33:33;101611.84;;;11.15;60.41
64967;BME280;51710;38.732;-121.358;2023-10-31T08:36:00;101610.88;;;11.07;61.15
64967;BME280;51710;38.732;-121.358;2023-10-31T08:38:26;101614.63;;;11.04;61.59
64967;BME280;51710;38.732;-121.358;2023-10-31T08:40:54;101614.50;;;11.06;61.08
64967;BME280;51710;38.732;-121.358;2023-10-31T08:43:20;101604.13;;;11.03;61.29
64967;BME280;51710;38.732;-121.358;2023-10-31T08:45:46;101605.22;;;11.00;61.39
64967;BME280;51710;38.732;-121.358;2023-10-31T08:48:13;101600.19;;;10.97;61.19
64967;BME280;51710;38.732;-121.358;2023-10-31T08:50:41;101602.28;;;10.94;61.47
64967;BME280;51710;38.732;-121.358;2023-10-31T08:53:09;101599.34;;;10.87;61.48
64967;BME280;51710;38.732;-121.358;2023-10-31T08:55:36;101601.28;;;10.85;62.02
64967;BME280;51710;38.732;-121.358;2023-10-31T08:58:02;101603.25;;;10.83;61.58
64967;BME280;51710;38.732;-121.358;2023-10-31T09:00:29;101607.44;;;10.76;61.80
64967;BME280;51710;38.732;-121.358;2023-10-31T09:02:55;101613.44;;;10.69;61.99
64967;BME280;51710;38.732;-121.358;2023-10-31T09:05:21;101606.84;;;10.63;62.09
64967;BME280;51710;38.732;-121.358;2023-10-31T09:07:47;101608.50;;;10.55;62.23
64967;BME280;51710;38.732;-121.358;2023-10-31T09:10:14;101608.59;;;10.44;62.61
64967;BME280;51710;38.732;-121.358;2023-10-31T09:12:40;101616.28;;;10.37;62.72
64967;BME280;51710;38.732;-121.358;2023-10-31T09:15:07;101612.91;;;10.35;62.81
64967;BME280;51710;38.732;-121.358;2023-10-31T09:17:34;101613.16;;;10.32;63.11
64967;BME280;51710;38.732;-121.358;2023-10-31T09:20:00;101605.88;;;10.34;63.17
64967;BME280;51710;38.732;-121.358;2023-10-31T09:22:26;101610.09;;;10.37;63.23
64967;BME280;51710;38.732;-121.358;2023-10-31T09:24:52;101607.31;;;10.38;63.26
64967;BME280;51710;38.732;-121.358;2023-10-31T09:27:19;101607.59;;;10.35;62.96
64967;BME280;51710;38.732;-121.358;2023-10-31T09:29:45;101602.41;;;10.34;63.76
64967;BME280;51710;38.732;-121.358;2023-10-31T09:32:15;101597.47;;;10.29;63.54
64967;BME280;51710;38.732;-121.358;2023-10-31T09:34:44;101605.16;;;10.23;63.70
64967;BME280;51710;38.732;-121.358;2023-10-31T09:37:10;101603.84;;;10.17;63.62
64967;BME280;51710;38.732;-121.358;2023-10-31T09:39:36;101595.44;;;10.12;63.80
64967;BME280;51710;38.732;-121.358;2023-10-31T09:42:03;101589.38;;;10.10;64.25
64967;BME280;51710;38.732;-121.358;2023-10-31T09:44:29;101596.28;;;10.12;64.54
64967;BME280;51710;38.732;-121.358;2023-10-31T09:46:56;101583.78;;;10.13;64.51
64967;BME280;51710;38.732;-121.358;2023-10-31T09:49:23;101586.94;;;10.18;64.40
64967;BME280;51710;38.732;-121.358;2023-10-31T09:51:50;101578.38;;;10.14;64.30
64967;BME280;51710;38.732;-121.358;2023-10-31T09:54:17;101592.06;;;10.10;64.32
64967;BME280;51710;38.732;-121.358;2023-10-31T09:56:44;101577.06;;;10.09;64.64
64967;BME280;51710;38.732;-121.358;2023-10-31T09:59:13;101583.31;;;10.08;64.87
64967;BME280;51710;38.732;-121.358;2023-10-31T10:01:39;101591.72;;;10.03;64.83
64967;BME280;51710;38.732;-121.358;2023-10-31T10:04:06;101595.59;;;9.99;64.80
64967;BME280;51710;38.732;-121.358;2023-10-31T10:06:32;101601.78;;;10.00;64.90
64967;BME280;51710;38.732;-121.358;2023-10-31T10:08:59;101596.72;;;9.97;65.12
64967;BME280;51710;38.732;-121.358;2023-10-31T10:11:25;101596.00;;;9.95;65.04
64967;BME280;51710;38.732;-121.358;2023-10-31T10:13:53;101599.38;;;9.97;65.51
64967;BME280;51710;38.732;-121.358;2023-10-31T10:16:33;101599.38;;;9.97;65.28
64967;BME280;51710;38.732;-121.358;2023-10-31T10:19:20;101603.13;;;9.94;65.53
64967;BME280;51710;38.732;-121.358;2023-10-31T10:21:53;101605.09;;;9.92;65.54
64967;BME280;51710;38.732;-121.358;2023-10-31T10:24:21;101602.69;;;9.89;65.50
64967;BME280;51710;38.732;-121.358;2023-10-31T10:26:48;101607.16;;;9.89;65.59
64967;BME280;51710;38.732;-121.358;2023-10-31T10:29:15;101603.34;;;9.82;65.91
64967;BME280;51710;38.732;-121.358;2023-10-31T10:31:42;101611.91;;;9.65;66.08
64967;BME280;51710;38.732;-121.358;2023-10-31T10:34:09;101602.19;;;9.54;66.41
64967;BME280;51710;38.732;-121.358;2023-10-31T10:36:35;101606.53;;;9.55;66.62
64967;BME280;51710;38.732;-121.358;2023-10-31T10:39:02;101599.84;;;9.61;66.52
64967;BME280;51710;38.732;-121.358;2023-10-31T10:41:29;101589.56;;;9.67;66.69
64967;BME280;51710;38.732;-121.358;2023-10-31T10:44:03;101590.38;;;9.68;66.57
64967;BME280;51710;38.732;-121.358;2023-10-31T10:46:33;101591.50;;;9.65;66.00
64967;BME280;51710;38.732;-121.358;2023-10-31T10:49:04;101586.16;;;9.65;66.30
64967;BME280;51710;38.732;-121.358;2023-10-31T10:51:53;101586.69;;;9.59;66.70
64967;BME280;51710;38.732;-121.358;2023-10-31T10:54:26;101593.13;;;9.57;66.43
64967;BME280;51710;38.732;-121.358;2023-10-31T10:57:03;101597.00;;;9.53;66.50
64967;BME280;51710;38.732;-121.358;2023-10-31T10:59:48;101591.41;;;9.56;66.47
64967;BME280;51710;38.732;-121.358;2023-10-31T11:02:18;101586.09;;;9.56;66.56
64967;BME280;51710;38.732;-121.358;2023-10-31T11:04:44;101580.06;;;9.54;66.74
64967;BME280;51710;38.732;-121.358;2023-10-31T11:07:11;101580.78;;;9.56;66.71
64967;BME280;51710;38.732;-121.358;2023-10-31T11:09:38;101582.72;;;9.54;66.71
64967;BME280;51710;38.732;-121.358;2023-10-31T11:12:06;101590.00;;;9.52;66.79
64967;BME280;51710;38.732;-121.358;2023-10-31T11:14:33;101599.19;;;9.48;67.08
64967;BME280;51710;38.732;-121.358;2023-10-31T11:17:22;101592.19;;;9.47;67.17
64967;BME280;51710;38.732;-121.358;2023-10-31T11:19:51;101600.88;;;9.49;66.84
64967;BME280;51710;38.732;-121.358;2023-10-31T11:22:18;101594.72;;;9.48;67.05
64967;BME280;51710;38.732;-121.358;2023-10-31T11:24:45;101598.47;;;9.46;66.81
64967;BME280;51710;38.732;-121.358;2023-10-31T11:27:11;101587.78;;;9.36;67.08
64967;BME280;51710;38.732;-121.358;2023-10-31T11:29:37;101593.72;;;9.29;67.16
64967;BME280;51710;38.732;-121.358;2023-10-31T11:32:06;101596.69;;;9.15;67.25
64967;BME280;51710;38.732;-121.358;2023-10-31T11:34:39;101597.38;;;8.96;67.72
64967;BME280;51710;38.732;-121.358;2023-10-31T11:37:26;101601.72;;;8.86;68.46
64967;BME280;51710;38.732;-121.358;2023-10-31T11:42:50;101606.44;;;8.82;68.48
64967;BME280;51710;38.732;-121.358;2023-10-31T11:48:06;101605.84;;;8.79;68.98
64967;BME280;51710;38.732;-121.358;2023-10-31T11:50:33;101612.47;;;8.84;68.92
64967;BME280;51710;38.732;-121.358;2023-10-31T11:53:07;101612.00;;;8.79;69.21
64967;BME280;51710;38.732;-121.358;2023-10-31T11:55:40;101604.41;;;8.75;69.42
64967;BME280;51710;38.732;-121.358;2023-10-31T11:58:17;101607.41;;;8.81;69.22
64967;BME280;51710;38.732;-121.358;2023-10-31T12:00:45;101605.09;;;8.88;69.46
64967;BME280;51710;38.732;-121.358;2023-10-31T12:03:11;101607.41;;;8.92;68.92
64967;BME280;51710;38.732;-121.358;2023-10-31T12:05:38;101613.41;;;8.94;69.13
64967;BME280;51710;38.732;-121.358;2023-10-31T12:08:05;101614.13;;;8.96;69.33
64967;BME280;51710;38.732;-121.358;2023-10-31T12:10:31;101609.91;;;8.94;68.92
64967;BME280;51710;38.732;-121.358;2023-10-31T12:12:58;101611.84;;;8.92;69.33
64967;BME280;51710;38.732;-121.358;2023-10-31T12:15:25;101607.41;;;8.92;69.06
64967;BME280;51710;38.732;-121.358;2023-10-31T12:17:58;101606.28;;;8.95;69.28
64967;BME280;51710;38.732;-121.358;2023-10-31T12:20:25;101611.59;;;8.95;69.09
64967;BME280;51710;38.732;-121.358;2023-10-31T12:23:04;101610.06;;;8.92;69.06
64967;BME280;51710;38.732;-121.358;2023-10-31T12:25:30;101613.53;;;8.93;68.77
64967;BME280;51710;38.732;-121.358;2023-10-31T12:28:00;101617.16;;;8.92;68.75